createdAt,value
2019-04-04T00:02:25.864Z,96617.06
2019-04-04T00:04:57.785Z,96620.16
2019-04-04T00:07:29.189Z,96630.66
2019-04-04T00:10:02.002Z,96619.66
2019-04-04T00:12:32.590Z,96598.60
2019-04-04T00:15:03.216Z,96596.59
2019-04-04T00:17:33.869Z,96589.38
2019-04-04T00:20:04.719Z,96581.09
2019-04-04T00:22:35.862Z,96585.40
2019-04-04T00:25:09.621Z,96592.39
2019-04-04T00:27:39.094Z,96598.20
2019-04-04T00:30:09.855Z,96602.50
2019-04-04T00:32:40.505Z,96610.97
2019-04-04T00:35:11.384Z,96601.48
2019-04-04T00:37:42.060Z,96601.39
2019-04-04T00:40:12.642Z,96587.72
2019-04-04T00:42:43.285Z,96584.01
2019-04-04T00:45:14.899Z,96579.70
2019-04-04T00:47:45.541Z,96568.23
2019-04-04T00:50:16.116Z,96563.31
2019-04-04T00:52:46.753Z,96565.63
2019-04-04T00:55:17.381Z,96549.64
2019-04-04T00:57:48.248Z,96546.73
2019-04-04T01:00:21.923Z,96544.62
2019-04-04T01:02:59.485Z,96540.42
2019-04-04T01:05:31.889Z,96531.05
2019-04-04T01:08:02.450Z,96516.04
2019-04-04T01:10:33.054Z,96503.77
2019-04-04T01:13:03.661Z,96499.56
2019-04-04T01:15:34.276Z,96479.98
2019-04-04T01:18:06.147Z,96490.09
2019-04-04T01:20:37.385Z,96504.06
2019-04-04T01:23:08.029Z,96486.59
2019-04-04T01:25:38.633Z,96494.39
2019-04-04T01:28:09.279Z,96510.69
2019-04-04T01:30:39.875Z,96508.36
2019-04-04T01:33:12.033Z,96507.78
2019-04-04T01:35:42.633Z,96492.20
2019-04-04T01:38:13.243Z,96481.89
2019-04-04T01:40:43.819Z,96471.11
2019-04-04T01:43:14.383Z,96458.34
2019-04-04T01:45:45.110Z,96452.62
2019-04-04T01:48:18.451Z,96456.23
2019-04-04T01:50:49.969Z,96464.92
2019-04-04T01:53:20.641Z,96486.70
2019-04-04T01:55:51.210Z,96503.67
2019-04-04T01:58:21.805Z,96504.70
2019-04-04T02:00:52.342Z,96505.69
2019-04-04T02:03:23.377Z,96510.48
2019-04-04T02:05:56.226Z,96503.00
2019-04-04T02:08:28.009Z,96480.12
2019-04-04T02:10:58.571Z,96484.70
2019-04-04T02:13:29.157Z,96495.48
2019-04-04T02:16:01.903Z,96486.00
2019-04-04T02:18:32.499Z,96483.40
2019-04-04T02:21:03.062Z,96470.64
2019-04-04T02:23:42.567Z,96462.14
2019-04-04T02:26:13.108Z,96464.33
2019-04-04T02:28:43.695Z,96464.41
2019-04-04T02:31:14.682Z,96466.52
2019-04-04T02:33:45.275Z,96464.81
2019-04-04T02:36:16.832Z,96472.91
2019-04-04T02:39:13.430Z,96462.34
2019-04-04T02:41:47.549Z,96461.55
2019-04-04T02:44:16.367Z,96475.31
2019-04-04T02:46:46.924Z,96470.52
2019-04-04T02:49:18.590Z,96462.95
2019-04-04T02:51:49.091Z,96462.54
2019-04-04T02:54:24.176Z,96454.35
2019-04-04T02:56:56.470Z,96446.16
2019-04-04T02:59:27.117Z,96436.27
2019-04-04T03:01:57.643Z,96443.06
2019-04-04T03:04:28.282Z,96450.14
2019-04-04T03:06:58.884Z,96447.37
2019-04-04T03:09:29.466Z,96450.14
2019-04-04T03:12:00.032Z,96449.46
2019-04-04T03:14:30.618Z,96446.15
2019-04-04T03:17:01.173Z,96435.17
2019-04-04T03:19:31.726Z,96436.48
2019-04-04T03:22:02.234Z,96431.87
2019-04-04T03:24:32.852Z,96418.39
2019-04-04T03:27:03.375Z,96420.48
2019-04-04T03:29:37.414Z,96422.47
2019-04-04T03:32:13.804Z,96414.19
2019-04-04T03:34:38.608Z,96405.41
2019-04-04T03:37:12.292Z,96396.81
2019-04-04T03:39:41.441Z,96381.04
2019-04-04T03:42:11.982Z,96373.37
2019-04-04T03:44:42.532Z,96363.39
2019-04-04T03:47:15.889Z,96363.98
2019-04-04T03:49:46.459Z,96377.37
2019-04-04T03:52:17.037Z,96381.05
2019-04-04T03:54:47.583Z,96375.59
2019-04-04T03:57:18.142Z,96362.48
2019-04-04T03:59:48.708Z,96356.92
2019-04-04T04:02:19.223Z,96354.32
2019-04-04T04:04:49.820Z,96360.81
2019-04-04T04:07:20.408Z,96359.70
2019-04-04T04:09:51.028Z,96373.09
2019-04-04T04:12:21.555Z,96376.09
2019-04-04T04:14:54.948Z,96378.97
2019-04-04T04:17:24.442Z,96367.90
2019-04-04T04:19:55.023Z,96355.90
2019-04-04T04:22:25.601Z,96357.81
2019-04-04T04:24:56.177Z,96355.70
2019-04-04T04:27:26.713Z,96373.09
2019-04-04T04:30:00.127Z,96388.85
2019-04-04T04:32:29.601Z,96398.16
2019-04-04T04:35:00.201Z,96404.83
2019-04-04T04:37:30.753Z,96422.10
2019-04-04T04:40:02.684Z,96421.11
2019-04-04T04:42:33.265Z,96414.93
2019-04-04T04:45:03.901Z,96405.84
2019-04-04T04:47:34.494Z,96397.04
2019-04-04T04:50:08.532Z,96395.33
2019-04-04T04:52:37.433Z,96387.47
2019-04-04T04:55:08.029Z,96384.28
2019-04-04T04:57:38.553Z,96392.45
2019-04-04T05:00:09.320Z,96399.16
2019-04-04T05:02:39.843Z,96409.94
2019-04-04T05:05:10.823Z,96406.83
2019-04-04T05:07:41.397Z,96400.25
2019-04-04T05:10:12.956Z,96393.45
2019-04-04T05:12:44.500Z,96396.36
2019-04-04T05:15:15.598Z,96401.14
2019-04-04T05:17:46.180Z,96408.43
2019-04-04T05:20:19.877Z,96403.73
2019-04-04T05:22:50.452Z,96413.93
2019-04-04T05:25:21.079Z,96421.80
2019-04-04T05:27:51.651Z,96419.30
2019-04-04T05:30:22.257Z,96418.00
2019-04-04T05:32:56.244Z,96416.92
2019-04-04T05:35:25.691Z,96422.11
2019-04-04T05:37:56.340Z,96421.90
2019-04-04T05:40:30.570Z,96423.50
2019-04-04T05:43:01.979Z,96423.01
2019-04-04T05:45:33.679Z,96418.81
2019-04-04T05:48:04.269Z,96422.61
2019-04-04T05:50:34.931Z,96428.08
2019-04-04T05:53:05.451Z,96425.48
2019-04-04T05:55:36.051Z,96426.99
2019-04-04T05:58:06.614Z,96421.71
2019-04-04T06:00:41.949Z,96423.50
2019-04-04T06:03:15.205Z,96424.00
2019-04-04T06:05:45.626Z,96425.39
2019-04-04T06:08:16.183Z,96427.39
2019-04-04T06:10:48.002Z,96434.56
2019-04-04T06:13:22.333Z,96431.78
2019-04-04T06:15:53.420Z,96437.16
2019-04-04T06:18:24.074Z,96436.47
2019-04-04T06:20:54.677Z,96432.27
2019-04-04T06:23:25.789Z,96433.16
2019-04-04T06:25:56.734Z,96428.03
2019-04-04T06:28:27.296Z,96434.77
2019-04-04T06:31:00.735Z,96432.63
2019-04-04T06:33:30.223Z,96430.53
2019-04-04T06:36:00.851Z,96431.33
2019-04-04T06:38:31.426Z,96444.56
2019-04-04T06:41:02.134Z,96448.55
2019-04-04T06:43:32.668Z,96446.34
2019-04-04T06:46:03.290Z,96439.69
2019-04-04T06:48:33.976Z,96431.73
2019-04-04T06:51:07.445Z,96435.72
2019-04-04T06:53:38.022Z,96433.02
2019-04-04T06:56:08.658Z,96422.75
2019-04-04T06:58:40.209Z,96424.05
2019-04-04T07:01:11.502Z,96421.54
2019-04-04T07:03:42.052Z,96411.56
2019-04-04T07:06:12.645Z,96423.24
2019-04-04T07:08:43.214Z,96430.94
2019-04-04T07:11:21.036Z,96437.05
2019-04-04T07:13:46.093Z,96434.11
2019-04-04T07:16:16.710Z,96440.20
2019-04-04T07:18:47.288Z,96445.69
2019-04-04T07:21:19.664Z,96441.80
2019-04-04T07:23:52.147Z,96441.13
2019-04-04T07:26:22.808Z,96448.54
2019-04-04T07:28:57.501Z,96444.93
2019-04-04T07:31:28.139Z,96440.76
2019-04-04T07:33:58.759Z,96442.64
2019-04-04T07:36:31.234Z,96449.94
2019-04-04T07:39:01.801Z,96450.73
2019-04-04T07:41:32.377Z,96459.09
2019-04-04T07:44:02.937Z,96459.09
2019-04-04T07:46:33.559Z,96462.19
2019-04-04T07:49:07.004Z,96460.00
2019-04-04T07:51:38.690Z,96458.44
2019-04-04T07:54:09.240Z,96459.52
2019-04-04T07:56:39.841Z,96454.33
2019-04-04T07:59:10.399Z,96453.12
2019-04-04T08:01:50.616Z,96448.46
2019-04-04T08:04:13.227Z,96450.44
2019-04-04T08:06:43.821Z,96443.37
2019-04-04T08:09:14.342Z,96442.16
2019-04-04T08:11:44.960Z,96449.95
2019-04-04T08:14:15.490Z,96439.75
2019-04-04T08:16:46.092Z,96449.36
2019-04-04T08:19:16.693Z,96441.17
2019-04-04T08:21:50.285Z,96433.80
2019-04-04T08:24:20.812Z,96440.68
2019-04-04T08:26:55.957Z,96438.58
2019-04-04T08:29:26.471Z,96436.20
2019-04-04T08:31:57.112Z,96446.67
2019-04-04T08:34:27.665Z,96449.77
2019-04-04T08:36:58.251Z,96441.17
2019-04-04T08:39:28.784Z,96433.78
2019-04-04T08:41:59.403Z,96433.78
2019-04-04T08:44:30.051Z,96410.23
2019-04-04T08:47:00.653Z,96410.31
2019-04-04T08:49:31.249Z,96416.80
2019-04-04T08:52:01.844Z,96429.88
2019-04-04T08:54:33.563Z,96436.87
2019-04-04T08:57:04.163Z,96432.60
2019-04-04T08:59:34.691Z,96440.38
2019-04-04T09:02:05.313Z,96450.03
2019-04-04T09:04:35.872Z,96444.73
2019-04-04T09:07:06.447Z,96440.14
2019-04-04T09:09:37.052Z,96437.27
2019-04-04T09:12:07.625Z,96432.25
2019-04-04T09:14:40.965Z,96439.53
2019-04-04T09:17:10.505Z,96442.52
2019-04-04T09:19:41.044Z,96453.92
2019-04-04T09:22:11.713Z,96458.20
2019-04-04T09:24:42.368Z,96449.10
2019-04-04T09:27:12.940Z,96449.31
2019-04-04T09:29:43.513Z,96445.00
2019-04-04T09:32:14.156Z,96436.61
2019-04-04T09:34:44.701Z,96443.08
2019-04-04T09:37:15.308Z,96448.67
2019-04-04T09:39:45.855Z,96458.84
2019-04-04T09:42:16.414Z,96451.24
2019-04-04T09:44:47.002Z,96448.45
2019-04-04T09:47:17.588Z,96455.66
2019-04-04T09:49:48.170Z,96444.55
2019-04-04T09:52:18.782Z,96444.33
2019-04-04T09:54:49.305Z,96465.95
2019-04-04T09:57:19.933Z,96467.25
2019-04-04T09:59:50.448Z,96468.07
2019-04-04T10:02:23.403Z,96464.23
2019-04-04T10:04:53.958Z,96467.23
2019-04-04T10:07:25.300Z,96453.33
2019-04-04T10:09:56.235Z,96457.28
2019-04-04T10:12:29.373Z,96462.31
2019-04-04T10:14:59.177Z,96470.22
2019-04-04T10:17:29.746Z,96471.00
2019-04-04T10:20:00.272Z,96475.20
2019-04-04T10:22:30.906Z,96498.69
2019-04-04T10:25:01.425Z,96498.69
2019-04-04T10:27:32.148Z,96489.56
2019-04-04T10:30:02.709Z,96493.77
2019-04-04T10:32:33.440Z,96481.05
2019-04-04T10:35:04.251Z,96479.05
2019-04-04T10:37:34.918Z,96473.77
2019-04-04T10:40:06.128Z,96486.85
2019-04-04T10:42:36.728Z,96486.13
2019-04-04T10:45:08.595Z,96494.81
2019-04-04T10:47:39.199Z,96493.13
2019-04-04T10:50:11.161Z,96487.77
2019-04-04T10:52:43.211Z,96492.74
2019-04-04T10:55:14.430Z,96499.36
2019-04-04T10:57:44.998Z,96505.22
2019-04-04T11:00:18.994Z,96516.02
2019-04-04T11:02:49.585Z,96513.16
2019-04-04T11:05:20.158Z,96512.86
2019-04-04T11:07:50.760Z,96504.75
2019-04-04T11:10:21.274Z,96507.55
2019-04-04T11:12:52.427Z,96502.45
2019-04-04T11:15:23.216Z,96509.89
2019-04-04T11:17:53.797Z,96518.58
2019-04-04T11:20:25.862Z,96516.36
2019-04-04T11:22:56.551Z,96503.55
2019-04-04T11:25:27.119Z,96501.78
2019-04-04T11:27:57.752Z,96503.69
2019-04-04T11:30:28.282Z,96505.00
2019-04-04T11:32:58.846Z,96512.30
2019-04-04T11:35:29.401Z,96507.70
2019-04-04T11:37:59.975Z,96504.61
2019-04-04T11:40:30.552Z,96505.11
2019-04-04T11:43:01.113Z,96499.09
2019-04-04T11:45:31.659Z,96494.39
2019-04-04T11:48:02.305Z,96491.47
2019-04-04T11:50:32.845Z,96498.30
2019-04-04T11:53:03.479Z,96493.67
2019-04-04T11:55:34.245Z,96491.97
2019-04-04T11:58:04.938Z,96495.65
2019-04-04T12:00:37.498Z,96509.78
2019-04-04T12:03:08.113Z,96507.29
2019-04-04T12:05:38.672Z,96495.98
2019-04-04T12:08:10.704Z,96517.77
2019-04-04T12:10:41.301Z,96520.27
2019-04-04T12:13:11.883Z,96528.16
2019-04-04T12:15:42.452Z,96540.16
2019-04-04T12:18:14.456Z,96538.86
2019-04-04T12:20:44.980Z,96567.95
2019-04-04T12:23:15.608Z,96603.45
2019-04-04T12:25:46.118Z,96627.58
2019-04-04T12:28:16.745Z,96622.77
2019-04-04T12:30:47.313Z,96611.84
2019-04-04T12:33:17.918Z,96618.36
2019-04-04T12:35:48.707Z,96624.27
2019-04-04T12:38:19.538Z,96642.88
2019-04-04T12:40:50.075Z,96638.08
2019-04-04T12:43:20.789Z,96633.48
2019-04-04T12:45:51.361Z,96630.95
2019-04-04T12:48:21.958Z,96626.66
2019-04-04T12:50:52.533Z,96627.06
2019-04-04T12:53:23.182Z,96636.58
2019-04-04T12:55:54.311Z,96645.06
2019-04-04T12:58:24.984Z,96631.17
2019-04-04T13:00:55.519Z,96614.69
2019-04-04T13:03:29.018Z,96631.66
2019-04-04T13:05:59.587Z,96635.47
2019-04-04T13:08:30.712Z,96634.30
2019-04-04T13:11:01.573Z,96633.67
2019-04-04T13:13:32.162Z,96638.78
2019-04-04T13:16:02.739Z,96644.97
2019-04-04T13:18:33.328Z,96641.29
2019-04-04T13:21:03.840Z,96625.97
2019-04-04T13:23:34.639Z,96605.89
2019-04-04T13:26:08.295Z,96611.19
2019-04-04T13:28:38.893Z,96628.17
2019-04-04T13:31:09.505Z,96640.77
2019-04-04T13:33:40.074Z,96622.78
2019-04-04T13:36:10.634Z,96616.09
2019-04-04T13:38:41.288Z,96625.17
2019-04-04T13:41:21.425Z,96629.69
2019-04-04T13:43:44.179Z,96624.89
2019-04-04T13:46:14.771Z,96620.59
2019-04-04T13:48:45.382Z,96614.58
2019-04-04T13:51:16.001Z,96609.39
2019-04-04T13:53:46.652Z,96595.01
2019-04-04T13:56:17.156Z,96594.91
2019-04-04T13:58:47.751Z,96609.78
2019-04-04T14:01:18.322Z,96625.89
2019-04-04T14:03:48.918Z,96629.55
2019-04-04T14:06:20.820Z,96621.15
2019-04-04T14:08:51.387Z,96620.24
2019-04-04T14:11:22.033Z,96622.55
2019-04-04T14:13:52.712Z,96628.13
2019-04-04T14:16:23.253Z,96630.84
2019-04-04T14:18:53.865Z,96627.06
2019-04-04T14:21:24.420Z,96640.16
2019-04-04T14:23:56.867Z,96657.86
2019-04-04T14:26:31.381Z,96668.73
2019-04-04T14:29:03.694Z,96683.14
2019-04-04T14:31:33.059Z,96686.91
2019-04-04T14:34:03.756Z,96681.73
2019-04-04T14:36:34.305Z,96684.23
2019-04-04T14:39:06.926Z,96688.52
2019-04-04T14:41:37.445Z,96693.73
2019-04-04T14:44:08.028Z,96698.73
2019-04-04T14:46:39.315Z,96697.10
2019-04-04T14:49:12.419Z,96698.11
2019-04-04T14:51:42.909Z,96699.39
2019-04-04T14:54:13.509Z,96698.11
2019-04-04T14:56:44.075Z,96699.66
2019-04-04T14:59:15.274Z,96709.16
2019-04-04T15:01:45.882Z,96717.88
2019-04-04T15:04:16.477Z,96706.56
2019-04-04T15:06:47.036Z,96697.75
2019-04-04T15:09:17.593Z,96695.64
2019-04-04T15:11:48.860Z,96689.03
2019-04-04T15:14:19.488Z,96689.53
2019-04-04T15:16:57.848Z,96693.73
2019-04-04T15:19:28.412Z,96691.34
2019-04-04T15:22:04.077Z,96694.72
2019-04-04T15:24:34.761Z,96698.63
2019-04-04T15:27:06.126Z,96698.25
2019-04-04T15:29:36.744Z,96693.33
2019-04-04T15:32:07.344Z,96689.52
2019-04-04T15:34:37.992Z,96683.63
2019-04-04T15:37:08.540Z,96678.11
2019-04-04T15:39:40.187Z,96682.63
2019-04-04T15:42:10.735Z,96694.52
2019-04-04T15:44:41.366Z,96702.23
2019-04-04T15:47:11.919Z,96700.03
2019-04-04T15:49:42.569Z,96702.15
2019-04-04T15:52:13.092Z,96708.93
2019-04-04T15:54:43.704Z,96722.35
2019-04-04T15:57:14.284Z,96728.77
2019-04-04T15:59:44.919Z,96725.84
2019-04-04T16:02:15.520Z,96725.16
2019-04-04T16:04:48.920Z,96723.66
2019-04-04T16:07:19.496Z,96734.68
2019-04-04T16:09:50.139Z,96733.56
2019-04-04T16:12:20.736Z,96729.34
2019-04-04T16:14:54.399Z,96736.56
2019-04-04T16:17:24.932Z,96730.23
2019-04-04T16:19:58.058Z,96722.73
2019-04-04T16:22:28.585Z,96728.34
2019-04-04T16:24:59.192Z,96725.94
2019-04-04T16:27:29.773Z,96745.67
2019-04-04T16:30:00.440Z,96751.59
2019-04-04T16:32:31.147Z,96752.89
2019-04-04T16:35:01.792Z,96755.19
2019-04-04T16:37:32.354Z,96750.48
2019-04-04T16:40:08.782Z,96746.08
2019-04-04T16:42:35.358Z,96750.88
2019-04-04T16:45:07.656Z,96745.98
2019-04-04T16:47:38.306Z,96743.48
2019-04-04T16:50:09.359Z,96738.95
2019-04-04T16:52:39.953Z,96771.61
2019-04-04T16:55:10.831Z,96785.03
2019-04-04T16:57:43.773Z,96785.62
2019-04-04T17:00:15.635Z,96785.00
2019-04-04T17:02:46.201Z,96780.20
2019-04-04T17:05:17.132Z,96768.62
2019-04-04T17:07:47.668Z,96767.69
2019-04-04T17:10:19.456Z,96778.31
2019-04-04T17:12:53.226Z,96777.59
2019-04-04T17:15:23.896Z,96781.50
2019-04-04T17:17:54.459Z,96781.50
2019-04-04T17:20:25.083Z,96783.83
2019-04-04T17:22:55.617Z,96804.92
2019-04-04T17:25:26.260Z,96819.94
2019-04-04T17:27:57.111Z,96853.22
2019-04-04T17:30:27.743Z,96862.14
2019-04-04T17:32:58.838Z,96878.46
2019-04-04T17:35:29.545Z,96891.75
2019-04-04T17:38:00.155Z,96887.98
2019-04-04T17:40:31.241Z,96881.47
2019-04-04T17:43:02.259Z,96855.94
2019-04-04T17:45:32.874Z,96835.01
2019-04-04T17:48:03.846Z,96823.11
2019-04-04T17:50:34.629Z,96821.40
2019-04-04T17:53:05.403Z,96830.72
2019-04-04T17:55:36.157Z,96845.92
2019-04-04T17:58:07.132Z,96851.35
2019-04-04T18:00:39.035Z,96856.14
2019-04-04T18:03:09.591Z,96863.48
2019-04-04T18:05:41.446Z,96858.15
2019-04-04T18:08:19.836Z,96860.56
2019-04-04T18:10:50.432Z,96864.23
2019-04-04T18:13:20.994Z,96871.19
2019-04-04T18:15:53.854Z,96877.27
2019-04-04T18:18:24.433Z,96880.67
2019-04-04T18:20:55.100Z,96891.77
2019-04-04T18:23:25.670Z,96879.16
2019-04-04T18:25:56.394Z,96874.64
2019-04-04T18:28:27.002Z,96865.94
2019-04-04T18:30:57.663Z,96864.53
2019-04-04T18:33:29.662Z,96864.95
2019-04-04T18:36:00.270Z,96875.73
2019-04-04T18:38:30.931Z,96880.74
2019-04-04T18:41:01.567Z,96878.78
2019-04-04T18:43:32.122Z,96889.59
2019-04-04T18:46:02.835Z,96895.88
2019-04-04T18:48:35.630Z,96886.50
2019-04-04T18:51:06.257Z,96884.19
2019-04-04T18:53:36.850Z,96885.80
2019-04-04T18:56:07.453Z,96892.99
2019-04-04T18:58:38.018Z,96897.38
2019-04-04T19:01:09.786Z,96898.86
2019-04-04T19:03:40.374Z,96892.05
2019-04-04T19:06:10.986Z,96897.16
2019-04-04T19:08:43.034Z,96895.07
2019-04-04T19:11:13.635Z,96895.70
2019-04-04T19:13:44.816Z,96896.08
2019-04-04T19:16:15.594Z,96892.67
2019-04-04T19:18:46.183Z,96892.70
2019-04-04T19:21:16.788Z,96895.52
2019-04-04T19:23:49.389Z,96899.56
2019-04-04T19:26:19.802Z,96912.82
2019-04-04T19:28:50.432Z,96917.52
2019-04-04T19:31:21.042Z,96924.64
2019-04-04T19:33:51.695Z,96930.76
2019-04-04T19:36:25.980Z,96932.48
2019-04-04T19:38:56.691Z,96935.52
2019-04-04T19:41:27.722Z,96923.63
2019-04-04T19:44:00.273Z,96916.05
2019-04-04T19:46:37.085Z,96918.76
2019-04-04T19:49:03.399Z,96916.65
2019-04-04T19:51:34.036Z,96917.14
2019-04-04T19:54:04.620Z,96908.27
2019-04-04T19:56:35.227Z,96911.52
2019-04-04T19:59:05.852Z,96918.77
2019-04-04T20:01:36.488Z,96924.10
2019-04-04T20:04:07.116Z,96927.47
2019-04-04T20:06:37.750Z,96936.64
2019-04-04T20:09:09.080Z,96944.04
2019-04-04T20:11:39.735Z,96950.55
2019-04-04T20:14:10.308Z,96957.20
2019-04-04T20:16:40.959Z,96951.16
2019-04-04T20:19:11.489Z,96955.71
2019-04-04T20:21:42.102Z,96954.66
2019-04-04T20:24:12.694Z,96959.18
2019-04-04T20:26:43.323Z,96967.50
2019-04-04T20:29:14.221Z,96975.30
2019-04-04T20:31:44.795Z,96976.12
2019-04-04T20:34:17.266Z,96976.00
2019-04-04T20:36:47.874Z,96973.02
2019-04-04T20:39:18.521Z,96966.88
2019-04-04T20:41:49.212Z,96964.05
2019-04-04T20:44:19.785Z,96949.23
2019-04-04T20:46:50.425Z,96944.48
2019-04-04T20:49:20.995Z,96943.94
2019-04-04T20:51:54.604Z,96945.33
2019-04-04T20:54:25.211Z,96935.84
2019-04-04T20:56:55.829Z,96947.74
2019-04-04T20:59:28.088Z,96956.27
2019-04-04T21:01:58.923Z,96963.85
2019-04-04T21:04:29.529Z,96969.20
2019-04-04T21:07:00.115Z,96973.86
2019-04-04T21:09:30.693Z,96987.70
2019-04-04T21:12:01.283Z,96988.83
2019-04-04T21:14:31.834Z,96986.06
2019-04-04T21:17:02.449Z,96980.66
2019-04-04T21:19:33.061Z,96987.43
2019-04-04T21:22:03.680Z,96992.94
2019-04-04T21:24:36.989Z,96998.13
2019-04-04T21:27:07.607Z,97001.58
2019-04-04T21:29:41.481Z,97003.13
2019-04-04T21:32:12.103Z,97012.59
2019-04-04T21:34:42.682Z,97008.39
2019-04-04T21:37:13.253Z,97002.06
2019-04-04T21:39:43.849Z,96998.87
2019-04-04T21:42:14.505Z,97005.80
2019-04-04T21:44:46.477Z,97004.78
2019-04-04T21:47:17.104Z,97011.22
2019-04-04T21:49:47.665Z,97017.70
2019-04-04T21:52:18.335Z,97005.23
2019-04-04T21:54:49.955Z,97004.73
2019-04-04T21:57:21.481Z,97011.54
2019-04-04T21:59:52.047Z,97017.70
2019-04-04T22:02:22.766Z,97014.46
2019-04-04T22:04:53.326Z,97011.88
2019-04-04T22:07:23.939Z,97014.21
2019-04-04T22:09:54.476Z,97018.06
2019-04-04T22:12:25.088Z,97021.32
2019-04-04T22:14:55.665Z,97028.86
2019-04-04T22:17:26.267Z,97029.99
2019-04-04T22:19:56.815Z,97021.50
2019-04-04T22:22:27.428Z,97019.75
2019-04-04T22:24:57.939Z,97013.92
2019-04-04T22:27:28.576Z,97010.20
2019-04-04T22:29:59.217Z,97019.43
2019-04-04T22:32:29.805Z,97026.05
2019-04-04T22:35:00.431Z,97036.28
2019-04-04T22:37:31.041Z,97033.20
2019-04-04T22:40:01.626Z,97035.22
2019-04-04T22:42:32.213Z,97038.42
2019-04-04T22:45:02.747Z,97048.00
2019-04-04T22:47:33.366Z,97043.31
2019-04-04T22:50:03.894Z,97048.17
2019-04-04T22:52:34.488Z,97059.05
2019-04-04T22:55:05.154Z,97069.66
2019-04-04T22:57:35.750Z,97067.42
2019-04-04T23:00:08.683Z,97069.84
2019-04-04T23:02:39.245Z,97076.86
2019-04-04T23:05:09.886Z,97078.09
2019-04-04T23:07:41.693Z,97077.98
2019-04-04T23:10:12.648Z,97069.84
2019-04-04T23:12:43.260Z,97072.77
2019-04-04T23:15:13.893Z,97075.00
2019-04-04T23:17:45.549Z,97068.66
2019-04-04T23:20:16.190Z,97077.56
2019-04-04T23:22:52.537Z,97079.39
2019-04-04T23:25:19.049Z,97075.33
2019-04-04T23:27:51.311Z,97067.91
2019-04-04T23:30:21.863Z,97066.56
2019-04-04T23:32:52.430Z,97063.33
2019-04-04T23:35:23.046Z,97056.05
2019-04-04T23:37:54.918Z,97058.77
2019-04-04T23:40:25.503Z,97058.80
2019-04-04T23:42:56.099Z,97059.70
2019-04-04T23:45:26.624Z,97057.91
2019-04-04T23:47:57.300Z,97056.39
2019-04-04T23:50:27.880Z,97048.59
2019-04-04T23:52:58.492Z,97052.34
2019-04-04T23:55:30.353Z,97048.59
2019-04-04T23:58:00.930Z,97050.37
